sensor_id;sensor_type;location;lat;lon;timestamp;temperature;humidity
5647;DHT22;2845;48.626;9.362;2024-03-25T00:01:45;5.50;97.60
5647;DHT22;2845;48.626;9.362;2024-03-25T00:04:18;5.50;97.60
5647;DHT22;2845;48.626;9.362;2024-03-25T00:06:52;5.50;97.60
5647;DHT22;2845;48.626;9.362;2024-03-25T00:09:25;5.50;97.60
5647;DHT22;2845;48.626;9.362;2024-03-25T00:11:57;5.50;97.70
5647;DHT22;2845;48.626;9.362;2024-03-25T00:14:32;5.50;97.60
5647;DHT22;2845;48.626;9.362;2024-03-25T00:17:05;5.50;97.70
5647;DHT22;2845;48.626;9.362;2024-03-25T00:19:39;5.50;97.70
5647;DHT22;2845;48.626;9.362;2024-03-25T00:22:12;5.50;97.60
5647;DHT22;2845;48.626;9.362;2024-03-25T00:24:45;5.50;97.70
5647;DHT22;2845;48.626;9.362;2024-03-25T00:27:18;5.50;97.60
5647;DHT22;2845;48.626;9.362;2024-03-25T00:29:52;5.50;97.60
5647;DHT22;2845;48.626;9.362;2024-03-25T00:32:25;5.50;97.60
5647;DHT22;2845;48.626;9.362;2024-03-25T00:34:58;6.30;97.80
5647;DHT22;2845;48.626;9.362;2024-03-25T00:37:30;5.50;97.60
5647;DHT22;2845;48.626;9.362;2024-03-25T00:40:04;6.70;97.90
5647;DHT22;2845;48.626;9.362;2024-03-25T00:42:39;5.40;97.70
5647;DHT22;2845;48.626;9.362;2024-03-25T00:45:13;5.40;97.70
5647;DHT22;2845;48.626;9.362;2024-03-25T00:47:45;5.40;97.70
5647;DHT22;2845;48.626;9.362;2024-03-25T00:50:20;5.40;97.70
5647;DHT22;2845;48.626;9.362;2024-03-25T00:52:52;5.50;97.80
5647;DHT22;2845;48.626;9.362;2024-03-25T00:55:25;5.40;97.70
5647;DHT22;2845;48.626;9.362;2024-03-25T00:57:57;5.40;97.70
5647;DHT22;2845;48.626;9.362;2024-03-25T01:00:32;5.40;97.70
5647;DHT22;2845;48.626;9.362;2024-03-25T01:03:04;5.40;97.70
5647;DHT22;2845;48.626;9.362;2024-03-25T01:05:37;5.40;97.70
5647;DHT22;2845;48.626;9.362;2024-03-25T01:08:10;5.30;97.80
5647;DHT22;2845;48.626;9.362;2024-03-25T01:10:45;5.30;97.70
5647;DHT22;2845;48.626;9.362;2024-03-25T01:13:17;5.40;97.70
5647;DHT22;2845;48.626;9.362;2024-03-25T01:15:52;5.80;97.80
5647;DHT22;2845;48.626;9.362;2024-03-25T01:18:24;5.30;97.80
5647;DHT22;2845;48.626;9.362;2024-03-25T01:20:57;5.30;98.00
5647;DHT22;2845;48.626;9.362;2024-03-25T01:23:30;5.30;97.90
5647;DHT22;2845;48.626;9.362;2024-03-25T01:26:03;5.30;97.90
5647;DHT22;2845;48.626;9.362;2024-03-25T01:28:36;5.30;97.90
5647;DHT22;2845;48.626;9.362;2024-03-25T01:31:11;5.20;97.90
5647;DHT22;2845;48.626;9.362;2024-03-25T01:33:43;5.20;98.00
5647;DHT22;2845;48.626;9.362;2024-03-25T01:36:16;5.20;98.00
5647;DHT22;2845;48.626;9.362;2024-03-25T01:38:49;5.20;98.00
5647;DHT22;2845;48.626;9.362;2024-03-25T01:41:23;5.20;98.00
5647;DHT22;2845;48.626;9.362;2024-03-25T01:43:55;5.20;98.00
5647;DHT22;2845;48.626;9.362;2024-03-25T01:46:30;5.20;98.10
5647;DHT22;2845;48.626;9.362;2024-03-25T01:49:02;5.20;98.10
5647;DHT22;2845;48.626;9.362;2024-03-25T01:51:36;5.10;98.10
5647;DHT22;2845;48.626;9.362;2024-03-25T01:54:09;5.10;98.00
5647;DHT22;2845;48.626;9.362;2024-03-25T01:56:46;5.20;98.00
5647;DHT22;2845;48.626;9.362;2024-03-25T01:59:19;5.20;98.10
5647;DHT22;2845;48.626;9.362;2024-03-25T02:01:53;5.20;98.00
5647;DHT22;2845;48.626;9.362;2024-03-25T02:04:26;5.20;98.00
5647;DHT22;2845;48.626;9.362;2024-03-25T02:07:00;5.20;98.00
5647;DHT22;2845;48.626;9.362;2024-03-25T02:09:33;5.20;97.90
5647;DHT22;2845;48.626;9.362;2024-03-25T02:12:07;5.20;97.90
5647;DHT22;2845;48.626;9.362;2024-03-25T02:14:41;5.20;98.00
5647;DHT22;2845;48.626;9.362;2024-03-25T02:17:17;8.00;98.60
5647;DHT22;2845;48.626;9.362;2024-03-25T02:19:50;5.10;97.90
5647;DHT22;2845;48.626;9.362;2024-03-25T02:22:23;5.20;98.00
5647;DHT22;2845;48.626;9.362;2024-03-25T02:24:57;5.10;97.90
5647;DHT22;2845;48.626;9.362;2024-03-25T02:27:32;5.20;97.90
5647;DHT22;2845;48.626;9.362;2024-03-25T02:30:05;5.20;97.90
5647;DHT22;2845;48.626;9.362;2024-03-25T02:32:40;5.20;97.90
5647;DHT22;2845;48.626;9.362;2024-03-25T02:35:15;5.10;97.90
5647;DHT22;2845;48.626;9.362;2024-03-25T02:37:50;5.10;97.90
5647;DHT22;2845;48.626;9.362;2024-03-25T02:40:23;5.30;97.90
5647;DHT22;2845;48.626;9.362;2024-03-25T02:42:57;5.20;97.80
5647;DHT22;2845;48.626;9.362;2024-03-25T02:45:33;5.20;97.80
5647;DHT22;2845;48.626;9.362;2024-03-25T02:48:06;8.30;98.50
5647;DHT22;2845;48.626;9.362;2024-03-25T02:50:38;5.10;97.90
5647;DHT22;2845;48.626;9.362;2024-03-25T02:53:12;5.10;97.90
5647;DHT22;2845;48.626;9.362;2024-03-25T02:55:44;5.10;97.80
5647;DHT22;2845;48.626;9.362;2024-03-25T02:58:19;5.10;97.90
5647;DHT22;2845;48.626;9.362;2024-03-25T03:00:51;5.10;97.90
5647;DHT22;2845;48.626;9.362;2024-03-25T03:03:25;5.10;97.90
5647;DHT22;2845;48.626;9.362;2024-03-25T03:05:57;5.20;97.80
5647;DHT22;2845;48.626;9.362;2024-03-25T03:08:30;5.20;97.80
5647;DHT22;2845;48.626;9.362;2024-03-25T03:11:02;5.20;97.90
5647;DHT22;2845;48.626;9.362;2024-03-25T03:13:37;5.20;97.80
5647;DHT22;2845;48.626;9.362;2024-03-25T03:16:09;5.20;97.80
5647;DHT22;2845;48.626;9.362;2024-03-25T03:18:42;5.20;97.80
5647;DHT22;2845;48.626;9.362;2024-03-25T03:21:14;5.20;97.80
5647;DHT22;2845;48.626;9.362;2024-03-25T03:23:47;5.10;97.80
5647;DHT22;2845;48.626;9.362;2024-03-25T03:26:19;5.10;97.90
5647;DHT22;2845;48.626;9.362;2024-03-25T03:28:54;5.20;97.90
5647;DHT22;2845;48.626;9.362;2024-03-25T03:31:26;5.10;97.90
5647;DHT22;2845;48.626;9.362;2024-03-25T03:34:00;5.20;97.90
5647;DHT22;2845;48.626;9.362;2024-03-25T03:36:32;5.10;98.00
5647;DHT22;2845;48.626;9.362;2024-03-25T03:39:05;5.10;97.90
5647;DHT22;2845;48.626;9.362;2024-03-25T03:41:37;5.00;97.90
5647;DHT22;2845;48.626;9.362;2024-03-25T03:44:12;5.00;97.90
5647;DHT22;2845;48.626;9.362;2024-03-25T03:46:44;5.10;98.00
5647;DHT22;2845;48.626;9.362;2024-03-25T03:49:17;5.10;97.90
5647;DHT22;2845;48.626;9.362;2024-03-25T03:51:50;5.00;97.90
5647;DHT22;2845;48.626;9.362;2024-03-25T03:54:23;5.10;98.00
5647;DHT22;2845;48.626;9.362;2024-03-25T03:56:55;5.00;98.00
5647;DHT22;2845;48.626;9.362;2024-03-25T03:59:29;5.10;97.90
5647;DHT22;2845;48.626;9.362;2024-03-25T04:02:01;5.10;97.90
5647;DHT22;2845;48.626;9.362;2024-03-25T04:04:35;5.10;97.90
5647;DHT22;2845;48.626;9.362;2024-03-25T04:07:07;5.10;97.80
5647;DHT22;2845;48.626;9.362;2024-03-25T04:09:40;5.00;97.80
5647;DHT22;2845;48.626;9.362;2024-03-25T04:12:12;5.10;97.80
5647;DHT22;2845;48.626;9.362;2024-03-25T04:14:48;5.10;97.80
5647;DHT22;2845;48.626;9.362;2024-03-25T04:17:20;5.10;97.80
5647;DHT22;2845;48.626;9.362;2024-03-25T04:19:54;5.00;97.80
5647;DHT22;2845;48.626;9.362;2024-03-25T04:22:26;5.10;97.80
5647;DHT22;2845;48.626;9.362;2024-03-25T04:24:59;5.10;97.80
5647;DHT22;2845;48.626;9.362;2024-03-25T04:27:31;5.00;97.70
5647;DHT22;2845;48.626;9.362;2024-03-25T04:30:07;5.00;97.80
5647;DHT22;2845;48.626;9.362;2024-03-25T04:32:40;5.00;97.80
5647;DHT22;2845;48.626;9.362;2024-03-25T04:35:14;5.10;97.80
5647;DHT22;2845;48.626;9.362;2024-03-25T04:37:46;5.10;97.70
5647;DHT22;2845;48.626;9.362;2024-03-25T04:40:18;5.00;97.70
5647;DHT22;2845;48.626;9.362;2024-03-25T04:42:51;5.00;97.70
5647;DHT22;2845;48.626;9.362;2024-03-25T04:45:25;5.00;97.60
5647;DHT22;2845;48.626;9.362;2024-03-25T04:47:57;5.00;97.60
5647;DHT22;2845;48.626;9.362;2024-03-25T04:50:30;5.00;97.60
5647;DHT22;2845;48.626;9.362;2024-03-25T04:53:03;5.00;97.50
5647;DHT22;2845;48.626;9.362;2024-03-25T04:55:35;5.00;97.50
5647;DHT22;2845;48.626;9.362;2024-03-25T04:58:07;5.10;97.50
5647;DHT22;2845;48.626;9.362;2024-03-25T05:00:41;5.00;97.50
5647;DHT22;2845;48.626;9.362;2024-03-25T05:03:13;5.00;97.50
5647;DHT22;2845;48.626;9.362;2024-03-25T05:05:45;5.00;97.50
5647;DHT22;2845;48.626;9.362;2024-03-25T05:08:18;5.00;97.50
5647;DHT22;2845;48.626;9.362;2024-03-25T05:10:50;4.90;97.60
5647;DHT22;2845;48.626;9.362;2024-03-25T05:13:22;4.90;97.60
5647;DHT22;2845;48.626;9.362;2024-03-25T05:15:56;5.80;97.80
5647;DHT22;2845;48.626;9.362;2024-03-25T05:18:28;4.90;97.60
5647;DHT22;2845;48.626;9.362;2024-03-25T05:21:01;4.90;97.60
5647;DHT22;2845;48.626;9.362;2024-03-25T05:23:33;4.90;97.60
5647;DHT22;2845;48.626;9.362;2024-03-25T05:26:05;4.90;97.60
5647;DHT22;2845;48.626;9.362;2024-03-25T05:28:37;4.90;97.60
5647;DHT22;2845;48.626;9.362;2024-03-25T05:31:11;5.00;97.60
5647;DHT22;2845;48.626;9.362;2024-03-25T05:33:43;5.00;97.60
5647;DHT22;2845;48.626;9.362;2024-03-25T05:36:16;5.00;97.50
5647;DHT22;2845;48.626;9.362;2024-03-25T05:38:48;5.00;97.50
5647;DHT22;2845;48.626;9.362;2024-03-25T05:41:20;6.30;97.70
5647;DHT22;2845;48.626;9.362;2024-03-25T05:43:53;5.00;97.30
5647;DHT22;2845;48.626;9.362;2024-03-25T05:46:26;5.00;97.30
5647;DHT22;2845;48.626;9.362;2024-03-25T05:49:01;5.10;97.30
5647;DHT22;2845;48.626;9.362;2024-03-25T05:51:34;5.10;97.20
5647;DHT22;2845;48.626;9.362;2024-03-25T05:54:06;5.10;97.20
5647;DHT22;2845;48.626;9.362;2024-03-25T05:56:39;5.10;97.10
5647;DHT22;2845;48.626;9.362;2024-03-25T05:59:11;5.20;97.10
5647;DHT22;2845;48.626;9.362;2024-03-25T06:01:45;5.20;97.20
5647;DHT22;2845;48.626;9.362;2024-03-25T06:04:17;5.20;97.10
5647;DHT22;2845;48.626;9.362;2024-03-25T06:06:50;6.10;97.10
5647;DHT22;2845;48.626;9.362;2024-03-25T06:09:22;5.30;97.00
5647;DHT22;2845;48.626;9.362;2024-03-25T06:11:54;5.40;96.80
5647;DHT22;2845;48.626;9.362;2024-03-25T06:14:26;5.40;96.70
5647;DHT22;2845;48.626;9.362;2024-03-25T06:17:00;5.50;96.70
5647;DHT22;2845;48.626;9.362;2024-03-25T06:19:32;5.50;96.70
5647;DHT22;2845;48.626;9.362;2024-03-25T06:22:04;5.60;96.80
5647;DHT22;2845;48.626;9.362;2024-03-25T06:24:37;5.80;96.60
5647;DHT22;2845;48.626;9.362;2024-03-25T06:27:09;5.90;96.40
5647;DHT22;2845;48.626;9.362;2024-03-25T06:29:41;6.20;96.30
5647;DHT22;2845;48.626;9.362;2024-03-25T06:32:15;8.00;96.40
5647;DHT22;2845;48.626;9.362;2024-03-25T06:35:06;6.60;95.80
5647;DHT22;2845;48.626;9.362;2024-03-25T06:37:39;6.70;95.50
5647;DHT22;2845;48.626;9.362;2024-03-25T06:40:11;6.80;95.30
5647;DHT22;2845;48.626;9.362;2024-03-25T06:42:44;6.80;95.20
5647;DHT22;2845;48.626;9.362;2024-03-25T06:45:16;6.80;95.30
5647;DHT22;2845;48.626;9.362;2024-03-25T06:47:50;6.80;95.00
5647;DHT22;2845;48.626;9.362;2024-03-25T06:50:22;6.80;94.90
5647;DHT22;2845;48.626;9.362;2024-03-25T06:52:55;6.90;94.80
5647;DHT22;2845;48.626;9.362;2024-03-25T06:55:27;7.00;94.70
5647;DHT22;2845;48.626;9.362;2024-03-25T06:58:00;7.00;94.60
5647;DHT22;2845;48.626;9.362;2024-03-25T07:00:34;7.10;94.50
5647;DHT22;2845;48.626;9.362;2024-03-25T07:03:08;7.20;94.50
5647;DHT22;2845;48.626;9.362;2024-03-25T07:05:40;7.20;94.40
5647;DHT22;2845;48.626;9.362;2024-03-25T07:08:12;7.30;94.40
5647;DHT22;2845;48.626;9.362;2024-03-25T07:10:45;7.40;94.20
5647;DHT22;2845;48.626;9.362;2024-03-25T07:13:18;7.50;94.10
5647;DHT22;2845;48.626;9.362;2024-03-25T07:15:50;7.60;94.00
5647;DHT22;2845;48.626;9.362;2024-03-25T07:18:24;7.60;93.90
5647;DHT22;2845;48.626;9.362;2024-03-25T07:20:56;7.70;93.90
5647;DHT22;2845;48.626;9.362;2024-03-25T07:23:29;10.20;94.40
5647;DHT22;2845;48.626;9.362;2024-03-25T07:26:01;7.70;93.90
5647;DHT22;2845;48.626;9.362;2024-03-25T07:28:33;7.60;93.90
5647;DHT22;2845;48.626;9.362;2024-03-25T07:31:06;7.60;93.90
5647;DHT22;2845;48.626;9.362;2024-03-25T07:33:40;7.60;93.90
5647;DHT22;2845;48.626;9.362;2024-03-25T07:36:12;7.60;93.90
5647;DHT22;2845;48.626;9.362;2024-03-25T07:38:44;7.60;93.90
5647;DHT22;2845;48.626;9.362;2024-03-25T07:41:17;7.60;93.90
5647;DHT22;2845;48.626;9.362;2024-03-25T07:43:49;7.60;93.90
5647;DHT22;2845;48.626;9.362;2024-03-25T07:46:21;7.60;93.80
5647;DHT22;2845;48.626;9.362;2024-03-25T07:48:55;7.60;93.80
5647;DHT22;2845;48.626;9.362;2024-03-25T07:51:27;7.60;93.80
5647;DHT22;2845;48.626;9.362;2024-03-25T07:53:59;7.90;93.80
5647;DHT22;2845;48.626;9.362;2024-03-25T07:56:32;8.10;93.60
5647;DHT22;2845;48.626;9.362;2024-03-25T07:59:04;8.30;93.30
5647;DHT22;2845;48.626;9.362;2024-03-25T08:01:36;9.10;93.10
5647;DHT22;2845;48.626;9.362;2024-03-25T08:04:10;8.60;92.80
5647;DHT22;2845;48.626;9.362;2024-03-25T08:06:42;9.30;92.90
5647;DHT22;2845;48.626;9.362;2024-03-25T08:09:14;8.80;92.90
5647;DHT22;2845;48.626;9.362;2024-03-25T08:11:46;9.00;92.80
5647;DHT22;2845;48.626;9.362;2024-03-25T08:14:19;9.10;92.40
5647;DHT22;2845;48.626;9.362;2024-03-25T08:16:51;9.10;92.30
5647;DHT22;2845;48.626;9.362;2024-03-25T08:19:27;9.20;92.30
5647;DHT22;2845;48.626;9.362;2024-03-25T08:21:59;9.10;92.20
5647;DHT22;2845;48.626;9.362;2024-03-25T08:24:32;9.00;92.20
5647;DHT22;2845;48.626;9.362;2024-03-25T08:27:04;9.10;92.20
5647;DHT22;2845;48.626;9.362;2024-03-25T08:29:36;11.90;92.70
5647;DHT22;2845;48.626;9.362;2024-03-25T08:32:09;9.10;92.10
5647;DHT22;2845;48.626;9.362;2024-03-25T08:34:42;9.20;91.90
5647;DHT22;2845;48.626;9.362;2024-03-25T08:37:14;9.40;91.90
5647;DHT22;2845;48.626;9.362;2024-03-25T08:39:47;9.40;91.60
5647;DHT22;2845;48.626;9.362;2024-03-25T08:42:19;9.40;91.70
5647;DHT22;2845;48.626;9.362;2024-03-25T08:44:51;9.40;91.60
5647;DHT22;2845;48.626;9.362;2024-03-25T08:47:23;9.50;91.70
5647;DHT22;2845;48.626;9.362;2024-03-25T08:52:29;9.50;91.60
5647;DHT22;2845;48.626;9.362;2024-03-25T08:55:02;10.50;91.90
5647;DHT22;2845;48.626;9.362;2024-03-25T08:57:35;9.60;91.50
5647;DHT22;2845;48.626;9.362;2024-03-25T09:00:08;9.70;91.60
5647;DHT22;2845;48.626;9.362;2024-03-25T09:02:41;9.80;91.20
5647;DHT22;2845;48.626;9.362;2024-03-25T09:05:14;12.10;91.80
5647;DHT22;2845;48.626;9.362;2024-03-25T09:07:49;10.00;90.90
5647;DHT22;2845;48.626;9.362;2024-03-25T09:10:22;11.80;90.60
5647;DHT22;2845;48.626;9.362;2024-03-25T09:13:13;9.90;90.10
5647;DHT22;2845;48.626;9.362;2024-03-25T09:15:45;9.90;90.40
5647;DHT22;2845;48.626;9.362;2024-03-25T09:18:17;10.00;90.30
5647;DHT22;2845;48.626;9.362;2024-03-25T09:20:51;12.60;90.70
5647;DHT22;2845;48.626;9.362;2024-03-25T09:23:23;10.20;90.20
5647;DHT22;2845;48.626;9.362;2024-03-25T09:25:55;10.30;90.20
5647;DHT22;2845;48.626;9.362;2024-03-25T09:28:28;10.90;90.10
5647;DHT22;2845;48.626;9.362;2024-03-25T09:31:00;10.60;89.70
5647;DHT22;2845;48.626;9.362;2024-03-25T09:33:32;10.70;89.80
5647;DHT22;2845;48.626;9.362;2024-03-25T09:36:06;10.80;89.30
5647;DHT22;2845;48.626;9.362;2024-03-25T09:38:39;11.00;88.70
5647;DHT22;2845;48.626;9.362;2024-03-25T09:41:11;12.30;89.30
5647;DHT22;2845;48.626;9.362;2024-03-25T09:43:44;11.60;88.10
5647;DHT22;2845;48.626;9.362;2024-03-25T09:46:20;12.10;87.80
5647;DHT22;2845;48.626;9.362;2024-03-25T09:48:54;13.10;86.80
5647;DHT22;2845;48.626;9.362;2024-03-25T09:51:28;12.20;86.20
5647;DHT22;2845;48.626;9.362;2024-03-25T09:54:00;12.40;86.40
5647;DHT22;2845;48.626;9.362;2024-03-25T09:56:32;12.00;86.00
5647;DHT22;2845;48.626;9.362;2024-03-25T09:59:05;14.00;87.30
5647;DHT22;2845;48.626;9.362;2024-03-25T10:01:38;12.20;86.20
5647;DHT22;2845;48.626;9.362;2024-03-25T10:04:11;12.30;86.10
5647;DHT22;2845;48.626;9.362;2024-03-25T10:09:19;12.70;83.60
5647;DHT22;2845;48.626;9.362;2024-03-25T10:11:52;13.00;84.20
5647;DHT22;2845;48.626;9.362;2024-03-25T10:14:24;14.60;83.30
5647;DHT22;2845;48.626;9.362;2024-03-25T10:16:56;14.10;82.90
5647;DHT22;2845;48.626;9.362;2024-03-25T10:19:29;13.30;82.50
5647;DHT22;2845;48.626;9.362;2024-03-25T10:22:04;13.50;82.30
5647;DHT22;2845;48.626;9.362;2024-03-25T10:24:38;13.50;82.50
5647;DHT22;2845;48.626;9.362;2024-03-25T10:27:18;14.80;82.80
5647;DHT22;2845;48.626;9.362;2024-03-25T10:29:52;14.10;82.20
5647;DHT22;2845;48.626;9.362;2024-03-25T10:32:25;13.90;81.40
5647;DHT22;2845;48.626;9.362;2024-03-25T10:34:57;14.00;80.30
5647;DHT22;2845;48.626;9.362;2024-03-25T10:37:31;13.80;79.70
5647;DHT22;2845;48.626;9.362;2024-03-25T10:40:04;14.90;81.40
5647;DHT22;2845;48.626;9.362;2024-03-25T10:42:39;13.60;78.90
5647;DHT22;2845;48.626;9.362;2024-03-25T10:45:12;14.10;80.60
5647;DHT22;2845;48.626;9.362;2024-03-25T10:47:45;13.80;79.60
5647;DHT22;2845;48.626;9.362;2024-03-25T10:50:21;15.00;79.40
5647;DHT22;2845;48.626;9.362;2024-03-25T10:52:59;15.00;78.20
5647;DHT22;2845;48.626;9.362;2024-03-25T10:55:32;13.40;76.10
5647;DHT22;2845;48.626;9.362;2024-03-25T10:58:07;13.00;77.00
5647;DHT22;2845;48.626;9.362;2024-03-25T11:00:40;13.10;76.20
5647;DHT22;2845;48.626;9.362;2024-03-25T11:03:13;14.20;74.20
5647;DHT22;2845;48.626;9.362;2024-03-25T11:05:45;14.50;74.50
5647;DHT22;2845;48.626;9.362;2024-03-25T11:08:19;13.40;74.60
5647;DHT22;2845;48.626;9.362;2024-03-25T11:10:51;15.80;75.10
5647;DHT22;2845;48.626;9.362;2024-03-25T11:13:23;14.70;74.80
5647;DHT22;2845;48.626;9.362;2024-03-25T11:15:58;13.90;75.20
5647;DHT22;2845;48.626;9.362;2024-03-25T11:18:30;13.90;73.10
5647;DHT22;2845;48.626;9.362;2024-03-25T11:21:04;14.10;74.20
5647;DHT22;2845;48.626;9.362;2024-03-25T11:23:40;14.30;71.80
5647;DHT22;2845;48.626;9.362;2024-03-25T11:26:18;14.40;71.70
5647;DHT22;2845;48.626;9.362;2024-03-25T11:28:51;15.70;71.80
5647;DHT22;2845;48.626;9.362;2024-03-25T11:31:25;16.00;68.60
5647;DHT22;2845;48.626;9.362;2024-03-25T11:34:03;15.70;71.30
5647;DHT22;2845;48.626;9.362;2024-03-25T11:36:36;13.50;71.80
5647;DHT22;2845;48.626;9.362;2024-03-25T11:39:09;13.40;67.70
5647;DHT22;2845;48.626;9.362;2024-03-25T11:41:42;13.30;70.40
5647;DHT22;2845;48.626;9.362;2024-03-25T11:44:14;14.70;73.10
5647;DHT22;2845;48.626;9.362;2024-03-25T11:46:50;13.70;72.40
5647;DHT22;2845;48.626;9.362;2024-03-25T11:49:22;12.90;72.60
5647;DHT22;2845;48.626;9.362;2024-03-25T11:51:55;12.60;72.90
5647;DHT22;2845;48.626;9.362;2024-03-25T11:54:29;13.30;75.00
5647;DHT22;2845;48.626;9.362;2024-03-25T11:57:01;12.50;73.20
5647;DHT22;2845;48.626;9.362;2024-03-25T11:59:33;14.50;77.20
5647;DHT22;2845;48.626;9.362;2024-03-25T12:02:06;12.40;75.30
5647;DHT22;2845;48.626;9.362;2024-03-25T12:04:42;12.80;75.40
5647;DHT22;2845;48.626;9.362;2024-03-25T12:07:15;13.80;75.90
5647;DHT22;2845;48.626;9.362;2024-03-25T12:09:48;12.30;73.40
5647;DHT22;2845;48.626;9.362;2024-03-25T12:12:39;11.90;73.30
5647;DHT22;2845;48.626;9.362;2024-03-25T12:15:11;11.60;72.90
5647;DHT22;2845;48.626;9.362;2024-03-25T12:17:44;11.50;73.00
5647;DHT22;2845;48.626;9.362;2024-03-25T12:20:17;11.60;75.70
5647;DHT22;2845;48.626;9.362;2024-03-25T12:22:49;11.80;73.60
5647;DHT22;2845;48.626;9.362;2024-03-25T12:25:23;12.00;75.10
5647;DHT22;2845;48.626;9.362;2024-03-25T12:27:55;12.00;74.30
5647;DHT22;2845;48.626;9.362;2024-03-25T12:30:27;12.00;72.00
5647;DHT22;2845;48.626;9.362;2024-03-25T12:33:00;12.00;74.00
5647;DHT22;2845;48.626;9.362;2024-03-25T12:35:35;12.00;73.10
5647;DHT22;2845;48.626;9.362;2024-03-25T12:38:07;12.10;71.80
5647;DHT22;2845;48.626;9.362;2024-03-25T12:40:41;12.20;71.70
5647;DHT22;2845;48.626;9.362;2024-03-25T12:43:14;11.80;72.70
5647;DHT22;2845;48.626;9.362;2024-03-25T12:45:46;12.30;73.10
5647;DHT22;2845;48.626;9.362;2024-03-25T12:48:19;14.20;73.90
5647;DHT22;2845;48.626;9.362;2024-03-25T12:50:51;12.50;71.10
5647;DHT22;2845;48.626;9.362;2024-03-25T12:53:23;12.40;72.80
5647;DHT22;2845;48.626;9.362;2024-03-25T12:55:57;12.40;73.60
5647;DHT22;2845;48.626;9.362;2024-03-25T12:58:29;12.20;72.20
5647;DHT22;2845;48.626;9.362;2024-03-25T13:01:02;12.00;72.00
5647;DHT22;2845;48.626;9.362;2024-03-25T13:03:34;11.80;73.10
5647;DHT22;2845;48.626;9.362;2024-03-25T13:06:06;11.80;74.60
5647;DHT22;2845;48.626;9.362;2024-03-25T13:08:39;12.00;75.30
5647;DHT22;2845;48.626;9.362;2024-03-25T13:11:12;13.40;74.20
5647;DHT22;2845;48.626;9.362;2024-03-25T13:13:44;12.40;74.60
5647;DHT22;2845;48.626;9.362;2024-03-25T13:16:16;12.20;74.00
5647;DHT22;2845;48.626;9.362;2024-03-25T13:18:49;14.00;75.30
5647;DHT22;2845;48.626;9.362;2024-03-25T13:21:21;13.90;72.30
5647;DHT22;2845;48.626;9.362;2024-03-25T13:23:53;13.30;74.80
5647;DHT22;2845;48.626;9.362;2024-03-25T13:26:27;12.20;74.50
5647;DHT22;2845;48.626;9.362;2024-03-25T13:28:59;12.10;75.00
5647;DHT22;2845;48.626;9.362;2024-03-25T13:31:31;12.00;73.90
5647;DHT22;2845;48.626;9.362;2024-03-25T13:34:03;12.00;74.00
5647;DHT22;2845;48.626;9.362;2024-03-25T13:36:36;12.00;73.00
5647;DHT22;2845;48.626;9.362;2024-03-25T13:39:08;12.20;73.90
5647;DHT22;2845;48.626;9.362;2024-03-25T13:41:41;14.80;73.90
5647;DHT22;2845;48.626;9.362;2024-03-25T13:44:14;12.30;74.00
5647;DHT22;2845;48.626;9.362;2024-03-25T13:46:46;15.40;74.90
5647;DHT22;2845;48.626;9.362;2024-03-25T13:49:19;14.60;75.00
5647;DHT22;2845;48.626;9.362;2024-03-25T13:51:56;12.30;74.40
5647;DHT22;2845;48.626;9.362;2024-03-25T13:54:29;14.30;73.80
5647;DHT22;2845;48.626;9.362;2024-03-25T13:57:03;13.20;73.50
5647;DHT22;2845;48.626;9.362;2024-03-25T13:59:35;16.30;75.60
5647;DHT22;2845;48.626;9.362;2024-03-25T14:02:07;13.90;71.20
5647;DHT22;2845;48.626;9.362;2024-03-25T14:04:39;13.00;72.60
5647;DHT22;2845;48.626;9.362;2024-03-25T14:07:12;14.90;73.50
5647;DHT22;2845;48.626;9.362;2024-03-25T14:09:44;12.50;71.50
5647;DHT22;2845;48.626;9.362;2024-03-25T14:12:17;12.60;72.70
5647;DHT22;2845;48.626;9.362;2024-03-25T14:14:50;12.60;73.20
5647;DHT22;2845;48.626;9.362;2024-03-25T14:17:22;12.70;71.00
5647;DHT22;2845;48.626;9.362;2024-03-25T14:19:56;12.70;70.10
5647;DHT22;2845;48.626;9.362;2024-03-25T14:22:28;12.70;72.20
5647;DHT22;2845;48.626;9.362;2024-03-25T14:25:00;14.50;73.20
5647;DHT22;2845;48.626;9.362;2024-03-25T14:27:34;12.70;71.80
5647;DHT22;2845;48.626;9.362;2024-03-25T14:30:10;12.70;72.80
5647;DHT22;2845;48.626;9.362;2024-03-25T14:32:43;12.70;72.00
5647;DHT22;2845;48.626;9.362;2024-03-25T14:35:15;14.80;72.50
5647;DHT22;2845;48.626;9.362;2024-03-25T14:37:48;12.90;71.70
5647;DHT22;2845;48.626;9.362;2024-03-25T14:40:20;15.00;73.10
5647;DHT22;2845;48.626;9.362;2024-03-25T14:42:54;14.70;72.60
5647;DHT22;2845;48.626;9.362;2024-03-25T14:45:26;13.70;72.70
5647;DHT22;2845;48.626;9.362;2024-03-25T14:47:58;12.80;70.90
5647;DHT22;2845;48.626;9.362;2024-03-25T14:50:30;12.80;72.00
5647;DHT22;2845;48.626;9.362;2024-03-25T14:53:03;14.70;72.60
5647;DHT22;2845;48.626;9.362;2024-03-25T14:55:35;12.90;70.20
5647;DHT22;2845;48.626;9.362;2024-03-25T14:58:09;12.90;69.40
5647;DHT22;2845;48.626;9.362;2024-03-25T15:00:41;13.40;70.60
5647;DHT22;2845;48.626;9.362;2024-03-25T15:03:14;13.00;69.10
5647;DHT22;2845;48.626;9.362;2024-03-25T15:05:46;15.70;71.30
5647;DHT22;2845;48.626;9.362;2024-03-25T15:08:18;15.20;71.00
5647;DHT22;2845;48.626;9.362;2024-03-25T15:10:50;15.20;69.40
5647;DHT22;2845;48.626;9.362;2024-03-25T15:15:57;13.10;68.80
5647;DHT22;2845;48.626;9.362;2024-03-25T15:18:29;13.10;67.60
5647;DHT22;2845;48.626;9.362;2024-03-25T15:21:02;14.50;68.10
5647;DHT22;2845;48.626;9.362;2024-03-25T15:23:35;13.10;67.50
5647;DHT22;2845;48.626;9.362;2024-03-25T15:26:07;13.10;66.50
5647;DHT22;2845;48.626;9.362;2024-03-25T15:28:41;13.10;67.20
5647;DHT22;2845;48.626;9.362;2024-03-25T15:31:13;14.40;69.00
5647;DHT22;2845;48.626;9.362;2024-03-25T15:33:45;15.30;68.40
5647;DHT22;2845;48.626;9.362;2024-03-25T15:36:18;13.00;66.50
5647;DHT22;2845;48.626;9.362;2024-03-25T15:38:50;13.00;64.80
5647;DHT22;2845;48.626;9.362;2024-03-25T15:41:22;15.50;66.30
5647;DHT22;2845;48.626;9.362;2024-03-25T15:43:56;13.00;65.00
5647;DHT22;2845;48.626;9.362;2024-03-25T15:46:28;13.20;64.20
5647;DHT22;2845;48.626;9.362;2024-03-25T15:49:00;13.20;65.60
5647;DHT22;2845;48.626;9.362;2024-03-25T15:51:32;13.10;66.50
5647;DHT22;2845;48.626;9.362;2024-03-25T15:54:05;13.10;64.10
5647;DHT22;2845;48.626;9.362;2024-03-25T15:56:37;14.90;66.60
5647;DHT22;2845;48.626;9.362;2024-03-25T16:01:43;12.90;65.60
5647;DHT22;2845;48.626;9.362;2024-03-25T16:04:15;12.90;64.90
5647;DHT22;2845;48.626;9.362;2024-03-25T16:06:48;12.90;66.10
5647;DHT22;2845;48.626;9.362;2024-03-25T16:09:20;12.90;65.40
5647;DHT22;2845;48.626;9.362;2024-03-25T16:11:52;13.90;68.60
5647;DHT22;2845;48.626;9.362;2024-03-25T16:14:31;12.60;67.50
5647;DHT22;2845;48.626;9.362;2024-03-25T16:17:04;14.10;67.40
5647;DHT22;2845;48.626;9.362;2024-03-25T16:19:37;12.20;67.10
5647;DHT22;2845;48.626;9.362;2024-03-25T16:22:10;14.30;69.00
5647;DHT22;2845;48.626;9.362;2024-03-25T16:24:42;12.00;68.40
5647;DHT22;2845;48.626;9.362;2024-03-25T16:27:14;11.90;69.10
5647;DHT22;2845;48.626;9.362;2024-03-25T16:32:20;11.70;68.30
5647;DHT22;2845;48.626;9.362;2024-03-25T16:34:53;11.70;70.90
5647;DHT22;2845;48.626;9.362;2024-03-25T16:37:25;11.60;70.80
5647;DHT22;2845;48.626;9.362;2024-03-25T16:39:57;11.50;68.60
5647;DHT22;2845;48.626;9.362;2024-03-25T16:42:29;13.40;70.90
5647;DHT22;2845;48.626;9.362;2024-03-25T16:47:36;11.30;69.80
5647;DHT22;2845;48.626;9.362;2024-03-25T16:50:09;13.40;71.30
5647;DHT22;2845;48.626;9.362;2024-03-25T16:52:41;10.70;70.20
5647;DHT22;2845;48.626;9.362;2024-03-25T16:55:13;11.10;71.00
5647;DHT22;2845;48.626;9.362;2024-03-25T16:57:45;11.00;71.40
5647;DHT22;2845;48.626;9.362;2024-03-25T17:00:20;11.00;72.50
5647;DHT22;2845;48.626;9.362;2024-03-25T17:02:52;10.90;71.30